createdAt,value
2018-12-17T00:01:52.382Z,36.27
2018-12-17T00:04:23.844Z,22.50
2018-12-17T00:06:55.547Z,27.77
2018-12-17T00:09:27.064Z,29.03
2018-12-17T00:11:58.668Z,23.43
2018-12-17T00:14:30.267Z,25.10
2018-12-17T00:17:02.049Z,21.67
2018-12-17T00:19:33.470Z,25.43
2018-12-17T00:22:05.269Z,24.67
2018-12-17T00:24:36.872Z,23.07
2018-12-17T00:27:08.424Z,33.23
2018-12-17T00:29:39.950Z,27.30
2018-12-17T00:32:11.546Z,34.73
2018-12-17T00:34:43.094Z,25.53
2018-12-17T00:37:14.640Z,27.97
2018-12-17T00:39:46.064Z,22.10
2018-12-17T00:42:17.640Z,26.90
2018-12-17T00:44:49.278Z,24.27
2018-12-17T00:47:20.780Z,20.40
2018-12-17T00:49:52.172Z,34.77
2018-12-17T00:52:23.759Z,22.93
2018-12-17T00:54:55.314Z,23.27
2018-12-17T00:57:26.885Z,28.87
2018-12-17T00:59:58.319Z,28.17
2018-12-17T01:02:29.872Z,20.30
2018-12-17T01:05:01.385Z,28.27
2018-12-17T01:07:32.993Z,28.60
2018-12-17T01:10:05.297Z,28.90
2018-12-17T01:12:36.708Z,24.60
2018-12-17T01:15:09.716Z,32.23
2018-12-17T01:17:41.271Z,26.43
2018-12-17T01:20:12.968Z,26.97
2018-12-17T01:22:44.467Z,31.10
2018-12-17T01:25:16.028Z,30.93
2018-12-17T01:27:47.472Z,24.37
2018-12-17T01:30:19.028Z,39.17
2018-12-17T01:32:50.504Z,24.03
2018-12-17T01:35:22.080Z,40.33
2018-12-17T01:37:53.684Z,37.90
2018-12-17T01:40:25.292Z,30.40
2018-12-17T01:42:56.800Z,40.77
2018-12-17T01:45:28.198Z,33.00
2018-12-17T01:47:59.725Z,36.87
2018-12-17T01:50:31.241Z,45.10
2018-12-17T01:53:02.905Z,37.33
2018-12-17T01:55:34.520Z,39.73
2018-12-17T01:58:06.025Z,47.30
2018-12-17T02:00:37.621Z,32.43
2018-12-17T02:03:09.236Z,31.13
2018-12-17T02:05:41.093Z,31.60
2018-12-17T02:08:12.761Z,26.60
2018-12-17T02:10:44.300Z,30.57
2018-12-17T02:13:15.903Z,31.93
2018-12-17T02:15:47.408Z,28.53
2018-12-17T02:18:18.950Z,26.80
2018-12-17T02:20:50.415Z,30.43
2018-12-17T02:23:21.958Z,28.93
2018-12-17T02:25:53.428Z,28.30
2018-12-17T02:28:25.027Z,30.97
2018-12-17T02:30:56.540Z,24.20
2018-12-17T02:33:28.075Z,28.80
2018-12-17T02:35:59.536Z,26.63
2018-12-17T02:38:31.136Z,22.23
2018-12-17T02:41:02.674Z,23.43
2018-12-17T02:43:34.216Z,19.13
2018-12-17T02:46:05.730Z,18.77
2018-12-17T02:48:37.359Z,30.23
2018-12-17T02:51:08.861Z,21.60
2018-12-17T02:53:40.461Z,21.70
2018-12-17T02:56:11.970Z,26.83
2018-12-17T02:58:44.092Z,24.20
2018-12-17T03:01:15.862Z,25.03
2018-12-17T03:03:47.343Z,28.17
2018-12-17T03:06:18.935Z,27.47
2018-12-17T03:08:50.458Z,28.67
2018-12-17T03:11:22.157Z,39.73
2018-12-17T03:13:53.669Z,26.67
2018-12-17T03:16:25.366Z,30.37
2018-12-17T03:18:56.877Z,38.63
2018-12-17T03:21:28.482Z,39.53
2018-12-17T03:24:00.234Z,27.73
2018-12-17T03:26:31.820Z,27.87
2018-12-17T03:29:03.325Z,22.10
2018-12-17T03:31:35.361Z,30.47
2018-12-17T03:34:06.974Z,27.57
2018-12-17T03:36:38.561Z,33.80
2018-12-17T03:39:10.177Z,27.43
2018-12-17T03:41:41.878Z,27.33
2018-12-17T03:44:13.414Z,18.53
2018-12-17T03:46:44.841Z,24.03
2018-12-17T03:49:16.437Z,19.87
2018-12-17T03:51:47.843Z,18.07
2018-12-17T03:54:20.035Z,28.13
2018-12-17T03:56:51.637Z,25.13
2018-12-17T03:59:23.065Z,23.93
2018-12-17T04:01:54.670Z,25.70
2018-12-17T04:04:26.179Z,26.07
2018-12-17T04:06:57.817Z,31.53
2018-12-17T04:09:29.278Z,28.03
2018-12-17T04:12:00.692Z,25.57
2018-12-17T04:14:32.186Z,27.77
2018-12-17T04:17:03.754Z,30.23
2018-12-17T04:19:35.184Z,28.43
2018-12-17T04:22:06.837Z,24.37
2018-12-17T04:24:38.257Z,28.63
2018-12-17T04:27:09.842Z,28.23
2018-12-17T04:29:41.656Z,22.37
2018-12-17T04:32:13.279Z,27.30
2018-12-17T04:34:44.808Z,29.10
2018-12-17T04:37:16.375Z,27.50
2018-12-17T04:39:47.935Z,30.13
2018-12-17T04:42:19.372Z,26.43
2018-12-17T04:44:50.920Z,26.93
2018-12-17T04:47:22.387Z,23.13
2018-12-17T04:49:54.125Z,21.47
2018-12-17T04:52:25.596Z,22.33
2018-12-17T04:54:57.230Z,22.87
2018-12-17T04:57:28.787Z,18.13
2018-12-17T05:00:00.344Z,30.20
2018-12-17T05:02:31.759Z,26.03
2018-12-17T05:05:03.473Z,25.93
2018-12-17T05:07:35.315Z,28.60
2018-12-17T05:10:07.616Z,25.70
2018-12-17T05:12:39.047Z,25.07
2018-12-17T05:15:10.655Z,25.77
2018-12-17T05:17:42.160Z,25.87
2018-12-17T05:20:13.791Z,26.60
2018-12-17T05:22:45.224Z,25.77
2018-12-17T05:25:16.822Z,23.10
2018-12-17T05:27:48.358Z,26.83
2018-12-17T05:30:20.190Z,33.87
2018-12-17T05:32:51.789Z,26.73
2018-12-17T05:35:23.424Z,24.03
2018-12-17T05:37:54.993Z,28.50
2018-12-17T05:40:26.397Z,31.97
2018-12-17T05:42:57.993Z,27.07
2018-12-17T05:45:29.615Z,25.27
2018-12-17T05:48:01.204Z,29.03
2018-12-17T05:50:32.747Z,28.80
2018-12-17T05:53:04.222Z,28.37
2018-12-17T05:55:35.861Z,33.37
2018-12-17T05:58:07.316Z,26.17
2018-12-17T06:00:38.858Z,19.17
2018-12-17T06:03:10.331Z,28.00
2018-12-17T06:05:41.929Z,22.33
2018-12-17T06:08:13.748Z,19.93
2018-12-17T06:10:45.384Z,23.40
2018-12-17T06:13:16.801Z,23.57
2018-12-17T06:15:48.383Z,29.57
2018-12-17T06:18:19.799Z,31.77
2018-12-17T06:20:51.660Z,25.67
2018-12-17T06:23:23.360Z,24.93
2018-12-17T06:25:54.784Z,28.93
2018-12-17T06:28:26.368Z,30.13
2018-12-17T06:30:57.781Z,31.83
2018-12-17T06:33:29.373Z,30.90
2018-12-17T06:36:00.789Z,31.27
2018-12-17T06:38:32.432Z,27.90
2018-12-17T06:41:03.901Z,25.10
2018-12-17T06:43:35.482Z,25.13
2018-12-17T06:46:07.135Z,68.80
2018-12-17T06:48:38.698Z,76.30
2018-12-17T06:51:10.117Z,53.63
2018-12-17T06:53:41.704Z,50.17
2018-12-17T06:56:13.117Z,50.50
2018-12-17T06:58:44.709Z,44.80
2018-12-17T07:01:16.244Z,31.73
2018-12-17T07:03:47.803Z,29.40
2018-12-17T07:06:19.415Z,24.20
2018-12-17T07:08:50.933Z,28.37
2018-12-17T07:11:22.652Z,37.30
2018-12-17T07:13:54.147Z,30.23
2018-12-17T07:16:25.752Z,42.70
2018-12-17T07:18:57.356Z,41.63
2018-12-17T07:21:28.894Z,33.73
2018-12-17T07:24:00.355Z,34.23
2018-12-17T07:26:31.909Z,34.43
2018-12-17T07:29:03.389Z,36.30
2018-12-17T07:31:34.915Z,44.80
2018-12-17T07:34:06.412Z,43.30
2018-12-17T07:36:38.020Z,47.97
2018-12-17T07:39:09.969Z,45.43
2018-12-17T07:41:41.448Z,45.53
2018-12-17T07:44:12.858Z,25.93
2018-12-17T07:46:44.427Z,40.30
2018-12-17T07:49:15.989Z,43.17
2018-12-17T07:51:47.545Z,38.10
2018-12-17T07:54:18.966Z,42.67
2018-12-17T07:56:50.543Z,44.77
2018-12-17T07:59:21.976Z,46.93
2018-12-17T08:01:53.700Z,47.77
2018-12-17T08:04:25.519Z,47.10
2018-12-17T08:06:57.076Z,48.20
2018-12-17T08:09:28.689Z,46.13
2018-12-17T08:12:00.295Z,47.07
2018-12-17T08:14:31.837Z,45.27
2018-12-17T08:17:04.128Z,52.20
2018-12-17T08:19:35.653Z,50.23
2018-12-17T08:22:07.213Z,44.47
2018-12-17T08:24:38.618Z,31.80
2018-12-17T08:27:10.220Z,45.43
2018-12-17T08:29:41.828Z,41.23
2018-12-17T08:32:13.236Z,47.93
2018-12-17T08:34:44.652Z,48.83
2018-12-17T08:37:16.220Z,46.40
2018-12-17T08:39:47.655Z,49.53
2018-12-17T08:42:19.234Z,43.77
2018-12-17T08:44:52.177Z,41.97
2018-12-17T08:47:23.696Z,43.60
2018-12-17T08:49:55.105Z,54.50
2018-12-17T08:52:26.681Z,42.33
2018-12-17T08:54:58.364Z,39.60
2018-12-17T08:57:29.891Z,41.50
2018-12-17T09:00:01.357Z,46.37
2018-12-17T09:02:33.015Z,52.77
2018-12-17T09:05:04.941Z,57.97
2018-12-17T09:07:36.718Z,52.53
2018-12-17T09:10:09.444Z,55.87
2018-12-17T09:12:40.869Z,52.27
2018-12-17T09:15:12.398Z,48.27
2018-12-17T09:17:43.876Z,42.53
2018-12-17T09:20:15.406Z,50.67
2018-12-17T09:22:46.896Z,47.07
2018-12-17T09:25:18.481Z,31.90
2018-12-17T09:27:49.977Z,42.83
2018-12-17T09:30:21.542Z,40.93
2018-12-17T09:32:52.967Z,53.87
2018-12-17T09:35:24.537Z,45.47
2018-12-17T09:37:55.949Z,37.43
2018-12-17T09:40:27.535Z,36.97
2018-12-17T09:42:59.206Z,22.87
2018-12-17T09:45:30.774Z,36.10
2018-12-17T09:48:02.357Z,36.17
2018-12-17T09:50:33.958Z,30.53
2018-12-17T09:53:05.504Z,34.40
2018-12-17T09:55:37.064Z,39.40
2018-12-17T09:58:08.533Z,42.30
2018-12-17T10:00:40.124Z,34.10
2018-12-17T10:03:11.781Z,38.40
2018-12-17T10:05:43.292Z,39.87
2018-12-17T10:08:14.836Z,40.13
2018-12-17T10:10:46.257Z,41.77
2018-12-17T10:13:17.845Z,36.60
2018-12-17T10:15:49.296Z,36.47
2018-12-17T10:18:20.948Z,38.80
2018-12-17T10:20:52.414Z,31.10
2018-12-17T10:23:23.961Z,38.83
2018-12-17T10:25:55.497Z,35.80
2018-12-17T10:28:27.062Z,42.13
2018-12-17T10:30:58.492Z,36.77
2018-12-17T10:33:30.077Z,40.47
2018-12-17T10:36:01.713Z,37.63
2018-12-17T10:38:33.188Z,37.40
2018-12-17T10:41:04.733Z,40.37
2018-12-17T10:43:36.225Z,36.23
2018-12-17T10:46:07.929Z,37.50
2018-12-17T10:48:39.482Z,32.13
2018-12-17T10:51:11.064Z,36.73
2018-12-17T10:53:42.460Z,33.97
2018-12-17T10:56:14.044Z,37.53
2018-12-17T10:58:45.452Z,37.00
2018-12-17T11:01:22.066Z,39.43
2018-12-17T11:03:58.636Z,36.63
2018-12-17T11:06:30.292Z,30.23
2018-12-17T11:09:02.357Z,33.77
2018-12-17T11:11:34.124Z,24.63
2018-12-17T11:14:05.548Z,36.37
2018-12-17T11:16:37.045Z,29.97
2018-12-17T11:19:08.436Z,37.17
2018-12-17T11:21:40.269Z,37.13
2018-12-17T11:24:11.847Z,30.97
2018-12-17T11:26:43.259Z,27.07
2018-12-17T11:29:14.863Z,29.17
2018-12-17T11:31:46.372Z,27.90
2018-12-17T11:34:17.986Z,27.73
2018-12-17T11:36:49.477Z,26.27
2018-12-17T11:39:21.070Z,33.00
2018-12-17T11:41:52.591Z,24.00
2018-12-17T11:44:24.233Z,26.80
2018-12-17T11:46:55.780Z,17.90
2018-12-17T11:49:27.400Z,15.73
2018-12-17T11:51:58.900Z,20.13
2018-12-17T11:54:30.440Z,18.60
2018-12-17T11:57:55.080Z,15.10
2018-12-17T12:00:28.219Z,11.33
2018-12-17T12:02:59.756Z,21.73
2018-12-17T12:05:31.269Z,22.40
2018-12-17T12:08:02.909Z,22.13
2018-12-17T12:10:34.362Z,19.07
2018-12-17T12:13:05.893Z,21.97
2018-12-17T12:15:37.368Z,22.50
2018-12-17T12:18:08.898Z,18.20
2018-12-17T12:20:40.362Z,13.73
2018-12-17T12:23:11.959Z,15.77
2018-12-17T12:25:43.472Z,13.60
2018-12-17T12:28:15.014Z,21.87
2018-12-17T12:30:46.474Z,19.17
2018-12-17T12:33:18.077Z,22.30
2018-12-17T12:35:49.586Z,17.73
2018-12-17T12:38:21.116Z,11.50
2018-12-17T12:40:52.529Z,9.40
2018-12-17T12:43:24.122Z,10.97
2018-12-17T12:45:55.679Z,13.53
2018-12-17T12:48:27.246Z,11.93
2018-12-17T12:50:58.844Z,11.23
2018-12-17T12:53:30.360Z,13.00
2018-12-17T12:56:01.960Z,13.63
2018-12-17T12:58:33.461Z,12.23
2018-12-17T13:01:07.719Z,17.30
2018-12-17T13:03:38.482Z,17.40
2018-12-17T13:06:10.050Z,12.93
2018-12-17T13:08:48.078Z,14.67
2018-12-17T13:11:19.518Z,11.73
2018-12-17T13:13:51.127Z,12.60
2018-12-17T13:16:22.639Z,11.63
2018-12-17T13:18:54.274Z,11.03
2018-12-17T13:21:25.694Z,12.70
2018-12-17T13:23:57.286Z,12.63
2018-12-17T13:26:28.837Z,15.77
2018-12-17T13:29:00.287Z,13.33
2018-12-17T13:31:31.711Z,15.97
2018-12-17T13:34:03.293Z,17.37
2018-12-17T13:36:34.908Z,17.60
2018-12-17T13:39:08.296Z,12.83
2018-12-17T13:41:39.797Z,7.87
2018-12-17T13:44:11.211Z,12.43
2018-12-17T13:46:42.799Z,11.73
2018-12-17T13:49:14.355Z,11.33
2018-12-17T13:51:50.858Z,9.93
2018-12-17T13:54:22.374Z,9.53
2018-12-17T13:56:53.838Z,7.50
2018-12-17T13:59:25.383Z,8.70
2018-12-17T14:01:58.191Z,13.23
2018-12-17T14:04:29.885Z,9.97
2018-12-17T14:07:01.387Z,10.80
2018-12-17T14:09:35.052Z,13.83
2018-12-17T14:12:06.696Z,12.37
2018-12-17T14:14:38.059Z,9.50
2018-12-17T14:17:14.519Z,12.00
2018-12-17T14:19:49.994Z,8.87
2018-12-17T14:22:21.621Z,12.50
2018-12-17T14:24:53.148Z,10.53
2018-12-17T14:27:24.650Z,11.00
2018-12-17T14:29:56.125Z,7.27
2018-12-17T14:32:27.771Z,7.00
2018-12-17T14:34:59.239Z,11.30
2018-12-17T14:37:30.771Z,12.50
2018-12-17T14:40:02.244Z,10.37
2018-12-17T14:42:33.798Z,11.80
2018-12-17T14:45:06.747Z,13.20
2018-12-17T14:47:38.326Z,9.37
2018-12-17T14:50:09.820Z,8.90
2018-12-17T14:52:41.377Z,12.97
2018-12-17T15:13:59.829Z,11.73
2018-12-17T15:16:31.280Z,10.77
2018-12-17T15:19:02.774Z,10.33
2018-12-17T15:21:34.274Z,7.93
2018-12-17T15:24:05.818Z,13.50
2018-12-17T15:26:37.693Z,10.43
2018-12-17T15:29:09.188Z,10.40
2018-12-17T15:31:43.243Z,11.73
2018-12-17T15:34:14.062Z,16.13
2018-12-17T15:36:45.701Z,18.70
2018-12-17T15:39:17.207Z,20.80
2018-12-17T15:41:48.848Z,17.77
2018-12-17T15:44:20.225Z,26.40
2018-12-17T15:46:51.747Z,15.37
2018-12-17T15:49:23.159Z,16.47
2018-12-17T15:51:54.751Z,12.73
2018-12-17T15:54:26.122Z,14.73
2018-12-17T15:56:57.653Z,14.97
2018-12-17T15:59:29.295Z,16.13
2018-12-17T16:02:00.894Z,12.90
2018-12-17T16:04:32.376Z,12.93
2018-12-17T16:07:04.003Z,10.20
2018-12-17T16:09:35.481Z,12.40
2018-12-17T16:12:07.080Z,13.60
2018-12-17T16:14:38.451Z,11.80
2018-12-17T16:17:10.512Z,11.80
2018-12-17T16:19:42.161Z,9.23
2018-12-17T16:22:13.574Z,15.33
2018-12-17T16:24:45.245Z,11.63
2018-12-17T16:27:19.497Z,11.30
2018-12-17T16:29:50.491Z,15.13
2018-12-17T16:32:22.192Z,14.07
2018-12-17T16:34:53.800Z,13.07
2018-12-17T16:37:25.291Z,12.40
2018-12-17T16:39:56.846Z,13.47
2018-12-17T16:42:28.304Z,13.40
2018-12-17T16:44:59.845Z,14.07
2018-12-17T16:47:31.310Z,13.93
2018-12-17T16:50:02.925Z,13.30
2018-12-17T16:52:34.407Z,13.77
2018-12-17T16:55:06.333Z,18.83
2018-12-17T16:57:37.915Z,13.40
2018-12-17T17:00:11.882Z,11.63
2018-12-17T17:02:43.387Z,16.37
2018-12-17T17:05:14.891Z,11.87
2018-12-17T17:07:46.484Z,17.73
2018-12-17T17:10:17.934Z,14.20
2018-12-17T17:12:49.495Z,13.53
2018-12-17T17:15:21.080Z,18.80
2018-12-17T17:17:52.613Z,17.10
2018-12-17T17:20:24.013Z,13.40
2018-12-17T17:22:55.605Z,15.37
2018-12-17T17:25:27.232Z,16.63
2018-12-17T17:27:58.726Z,16.63
2018-12-17T17:30:30.345Z,16.30
2018-12-17T17:33:01.849Z,16.40
2018-12-17T17:35:33.190Z,11.30
2018-12-17T17:38:04.719Z,12.33
2018-12-17T17:40:36.451Z,13.23
2018-12-17T17:43:08.045Z,18.00
2018-12-17T17:45:39.472Z,17.80
2018-12-17T17:48:11.036Z,19.53
2018-12-17T17:50:42.459Z,17.10
2018-12-17T17:53:13.953Z,16.17
2018-12-17T17:55:45.561Z,20.03
2018-12-17T17:58:17.085Z,16.27
2018-12-17T18:00:48.517Z,21.57
2018-12-17T18:03:20.068Z,19.27
2018-12-17T18:05:51.634Z,15.70
2018-12-17T18:08:23.287Z,14.20
2018-12-17T18:10:55.090Z,16.47
2018-12-17T18:13:26.595Z,13.63
2018-12-17T18:15:58.194Z,14.77
2018-12-17T18:18:29.708Z,15.40
2018-12-17T18:21:01.313Z,17.67
2018-12-17T18:23:32.808Z,12.97
2018-12-17T18:26:04.369Z,13.43
2018-12-17T18:28:35.824Z,13.47
2018-12-17T18:31:07.346Z,10.60
2018-12-17T18:33:39.845Z,15.10
2018-12-17T18:36:11.339Z,13.73
2018-12-17T18:38:42.829Z,14.37
2018-12-17T18:41:14.267Z,13.97
2018-12-17T18:43:45.855Z,14.00
2018-12-17T18:46:17.395Z,14.20
2018-12-17T18:48:49.058Z,11.77
2018-12-17T18:51:20.472Z,10.03
2018-12-17T18:53:52.063Z,30.67
2018-12-17T18:56:23.680Z,15.10
2018-12-17T18:58:55.193Z,17.53
2018-12-17T19:01:26.779Z,13.40
2018-12-17T19:03:58.283Z,14.67
2018-12-17T19:06:29.901Z,16.17
2018-12-17T19:09:01.376Z,14.83
2018-12-17T19:11:32.994Z,13.27
2018-12-17T19:14:04.518Z,18.30
2018-12-17T19:16:36.109Z,17.77
2018-12-17T19:19:07.607Z,14.33
2018-12-17T19:21:39.258Z,12.83
2018-12-17T19:24:10.718Z,13.87
2018-12-17T19:26:42.327Z,16.80
2018-12-17T19:29:13.792Z,14.53
2018-12-17T19:31:45.377Z,15.87
2018-12-17T19:34:16.837Z,14.97
2018-12-17T19:36:48.442Z,15.90
2018-12-17T19:39:20.009Z,14.40
2018-12-17T19:41:51.584Z,15.07
2018-12-17T19:44:23.019Z,16.40
2018-12-17T19:46:54.585Z,15.77
2018-12-17T19:49:26.143Z,11.43
2018-12-17T19:51:57.712Z,21.37
2018-12-17T19:54:29.120Z,17.60
2018-12-17T19:57:00.706Z,17.93
2018-12-17T19:59:32.125Z,21.83
2018-12-17T20:02:03.712Z,23.27
2018-12-17T20:04:35.136Z,21.27
2018-12-17T20:07:06.684Z,31.13
2018-12-17T20:09:38.132Z,21.33
2018-12-17T20:12:09.732Z,20.97
2018-12-17T20:14:41.184Z,17.83
2018-12-17T20:17:12.731Z,21.43
2018-12-17T20:19:44.185Z,17.23
2018-12-17T20:22:15.612Z,18.47
2018-12-17T20:24:47.184Z,19.73
2018-12-17T20:27:18.732Z,20.30
2018-12-17T20:29:50.643Z,15.43
2018-12-17T20:32:22.311Z,16.10
2018-12-17T20:34:53.821Z,21.43
2018-12-17T20:37:25.421Z,19.37
2018-12-17T20:39:56.980Z,14.17
2018-12-17T20:42:29.282Z,15.70
2018-12-17T20:45:00.845Z,18.03
2018-12-17T20:47:32.199Z,20.80
2018-12-17T20:50:03.779Z,20.47
2018-12-17T20:52:35.216Z,23.17
2018-12-17T20:55:07.205Z,17.97
2018-12-17T20:57:38.582Z,17.97
2018-12-17T21:00:10.315Z,15.73
2018-12-17T21:02:41.816Z,15.20
2018-12-17T21:05:13.401Z,16.30
2018-12-17T21:07:44.782Z,13.27
2018-12-17T21:10:16.499Z,14.33
2018-12-17T21:12:48.417Z,13.87
2018-12-17T21:15:19.931Z,15.00
2018-12-17T21:17:51.451Z,16.67
2018-12-17T21:20:22.888Z,17.40
2018-12-17T21:22:54.456Z,10.47
2018-12-17T21:25:25.944Z,20.13
2018-12-17T21:27:57.463Z,14.53
2018-12-17T21:30:28.930Z,16.47
2018-12-17T21:33:06.581Z,15.50
2018-12-17T21:35:34.063Z,16.20
2018-12-17T21:38:05.631Z,16.80
2018-12-17T21:40:37.245Z,18.57
2018-12-17T21:43:08.836Z,21.13
2018-12-17T21:45:40.438Z,15.93
2018-12-17T21:48:11.950Z,14.27
2018-12-17T21:50:43.555Z,15.07
2018-12-17T21:53:15.061Z,20.43
2018-12-17T21:55:46.603Z,14.83
2018-12-17T21:58:18.056Z,14.60
2018-12-17T22:00:49.678Z,20.03
2018-12-17T22:03:21.176Z,17.23
2018-12-17T22:05:52.705Z,15.57
2018-12-17T22:08:24.132Z,17.80
2018-12-17T22:10:55.773Z,13.70
2018-12-17T22:13:27.279Z,17.90
2018-12-17T22:15:58.878Z,11.87
2018-12-17T22:18:30.367Z,16.43
2018-12-17T22:21:01.986Z,16.23
2018-12-17T22:23:33.399Z,17.53
2018-12-17T22:26:05.000Z,14.23
2018-12-17T22:28:36.499Z,15.90
2018-12-17T22:31:08.111Z,13.67
2018-12-17T22:33:39.612Z,12.13
2018-12-17T22:36:11.153Z,21.07
2018-12-17T22:38:42.606Z,14.13
2018-12-17T22:41:14.163Z,14.63
2018-12-17T22:43:45.623Z,17.17
2018-12-17T22:46:17.230Z,13.23
2018-12-17T22:48:48.747Z,14.87
2018-12-17T22:51:20.266Z,17.90
2018-12-17T22:53:51.740Z,13.40
2018-12-17T22:56:23.277Z,16.63
2018-12-17T22:58:54.755Z,14.87
2018-12-17T23:01:26.318Z,13.80
2018-12-17T23:03:57.804Z,13.73
2018-12-17T23:06:29.386Z,14.57
2018-12-17T23:09:05.240Z,13.70
2018-12-17T23:11:57.991Z,14.97
2018-12-17T23:14:45.782Z,17.07
2018-12-17T23:17:33.412Z,15.83
2018-12-17T23:20:05.072Z,14.17
2018-12-17T23:22:37.631Z,18.60
2018-12-17T23:25:09.174Z,14.30
2018-12-17T23:27:47.148Z,15.17
2018-12-17T23:30:18.719Z,15.37
2018-12-17T23:32:50.255Z,12.30
2018-12-17T23:35:21.963Z,13.93
2018-12-17T23:37:53.336Z,15.83
2018-12-17T23:40:24.922Z,12.30
2018-12-17T23:42:56.340Z,16.77
2018-12-17T23:45:28.056Z,13.43
2018-12-17T23:47:59.640Z,16.17
2018-12-17T23:50:31.129Z,19.13
2018-12-17T23:53:02.562Z,16.53
2018-12-17T23:55:34.160Z,16.90
2018-12-17T23:58:05.756Z,15.20
